Time;durP1;ratioP1;P1;durP2;ratioP2;P2;SDS_P1;SDS_P2;PMS_P1;PMS_P2;Temp;Humidity;BMP_temperature;BMP_pressure;BME280_temperature;BME280_humidity;BME280_pressure;Samples;Min_cycle;Max_cycle;Signal;HPM_P1;HPM_P2
2023/01/08 00:01:23;;;;;;;5.85;1.85;;;;;;;;;;6336007;22;20077;-85
2023/01/08 00:03:50;;;;;;;5.93;2.42;;;;;;;;;;6334920;22;20019;-85
2023/01/08 00:06:17;;;;;;;8.38;2.90;;;;;;;;;;6335129;22;20027;-85
2023/01/08 00:08:44;;;;;;;7.47;2.80;;;;;;;;;;6334964;22;20027;-85
2023/01/08 00:11:11;;;;;;;5.80;1.80;;;;;;;;;;6334485;22;20097;-85
2023/01/08 00:13:38;;;;;;;5.68;1.50;;;;;;;;;;6335943;22;20527;-85
2023/01/08 00:16:05;;;;;;;5.90;1.13;;;;;;;;;;6336096;22;20114;-85
2023/01/08 00:18:32;;;;;;;5.82;1.27;;;;;;;;;;6335228;22;20030;-84
2023/01/08 00:20:59;;;;;;;7.88;1.33;;;;;;;;;;6335556;22;20023;-85
2023/01/08 00:23:25;;;;;;;6.10;1.30;;;;;;;;;;6306731;22;20833;-85
2023/01/08 00:25:52;;;;;;;4.88;0.90;;;;;;;;;;6335335;22;20051;-85
2023/01/08 00:28:19;;;;;;;5.85;1.10;;;;;;;;;;6335863;22;20824;-85
2023/01/08 00:30:46;;;;;;;5.95;1.10;;;;;;;;;;6335836;22;20031;-84
2023/01/08 00:33:13;;;;;;;6.82;1.10;;;;;;;;;;6334078;22;20027;-86
2023/01/08 00:35:40;;;;;;;7.18;1.50;;;;;;;;;;6334864;22;20031;-85
2023/01/08 00:38:06;;;;;;;4.80;1.30;;;;;;;;;;6306119;22;20019;-85
2023/01/08 00:40:33;;;;;;;9.52;1.55;;;;;;;;;;6335500;22;20034;-85
2023/01/08 00:43:00;;;;;;;7.18;1.52;;;;;;;;;;6335110;22;20019;-85
2023/01/08 00:45:26;;;;;;;5.90;1.50;;;;;;;;;;6335574;22;20023;-85
2023/01/08 00:47:53;;;;;;;5.50;1.90;;;;;;;;;;6335432;22;20027;-86
2023/01/08 00:50:19;;;;;;;6.80;1.77;;;;;;;;;;6336487;22;20023;-84
2023/01/08 00:52:46;;;;;;;6.47;1.83;;;;;;;;;;6334949;22;20120;-85
2023/01/08 00:55:12;;;;;;;6.63;2.20;;;;;;;;;;6335298;22;20181;-84
2023/01/08 00:57:39;;;;;;;7.20;2.30;;;;;;;;;;6335185;22;20011;-85
2023/01/08 01:00:07;;;;;;;6.43;2.22;;;;;;;;;;6307718;22;20034;-85
2023/01/08 01:02:37;;;;;;;7.60;2.80;;;;;;;;;;6307366;22;20019;-85
2023/01/08 01:05:04;;;;;;;9.53;3.10;;;;;;;;;;6335481;22;20027;-84
2023/01/08 01:07:32;;;;;;;7.97;2.72;;;;;;;;;;6307523;22;20481;-84
2023/01/08 01:09:59;;;;;;;6.13;2.55;;;;;;;;;;6334798;22;20031;-85
2023/01/08 01:12:25;;;;;;;6.80;2.30;;;;;;;;;;6335608;22;20265;-84
2023/01/08 01:14:52;;;;;;;5.70;2.00;;;;;;;;;;6335612;22;20464;-84
2023/01/08 01:17:18;;;;;;;6.00;2.10;;;;;;;;;;6334918;22;20535;-85
2023/01/08 01:19:44;;;;;;;6.63;2.40;;;;;;;;;;6336624;22;20058;-84
2023/01/08 01:22:11;;;;;;;5.00;2.00;;;;;;;;;;6308388;22;20062;-84
2023/01/08 01:24:37;;;;;;;7.32;1.85;;;;;;;;;;6336557;22;20023;-84
2023/01/08 01:27:04;;;;;;;6.13;1.80;;;;;;;;;;6334833;22;20514;-84
2023/01/08 01:29:30;;;;;;;5.88;1.92;;;;;;;;;;6335544;22;20023;-85
2023/01/08 01:31:57;;;;;;;6.30;2.17;;;;;;;;;;6337152;22;20102;-85
2023/01/08 01:34:23;;;;;;;7.32;2.25;;;;;;;;;;6336229;22;20601;-85
2023/01/08 01:36:50;;;;;;;5.82;2.40;;;;;;;;;;6336405;22;20100;-84
2023/01/08 01:39:18;;;;;;;5.18;2.13;;;;;;;;;;6334827;22;20149;-85
2023/01/08 01:41:45;;;;;;;5.15;2.10;;;;;;;;;;6336000;22;20023;-86
2023/01/08 01:44:30;;;;;;;6.20;2.15;;;;;;;;;;6308759;22;20027;-85
2023/01/08 01:46:57;;;;;;;8.85;2.22;;;;;;;;;;6336590;22;20027;-85
2023/01/08 01:49:23;;;;;;;5.70;1.95;;;;;;;;;;6335793;22;20580;-85
2023/01/08 01:51:54;;;;;;;5.47;2.17;;;;;;;;;;6335627;22;20300;-86
2023/01/08 01:54:21;;;;;;;5.07;1.83;;;;;;;;;;6308410;22;20102;-85
2023/01/08 01:56:48;;;;;;;5.55;1.90;;;;;;;;;;6334911;22;20495;-85
2023/01/08 01:59:30;;;;;;;8.15;1.60;;;;;;;;;;6335990;22;20081;-85
2023/01/08 02:01:59;;;;;;;4.53;1.55;;;;;;;;;;6335825;22;20076;-85
2023/01/08 02:14:53;;;;;;;3.00;1.13;;;;;;;;;;6337434;22;20011;-83
2023/01/08 02:17:25;;;;;;;3.78;1.60;;;;;;;;;;6307159;22;20046;-83
2023/01/08 02:19:57;;;;;;;4.45;1.08;;;;;;;;;;6307259;22;20053;-83
2023/01/08 02:22:23;;;;;;;8.50;1.63;;;;;;;;;;6335512;22;20741;-83
2023/01/08 02:25:10;;;;;;;6.63;1.42;;;;;;;;;;6307654;22;20098;-83
2023/01/08 02:27:38;;;;;;;4.50;1.00;;;;;;;;;;6332973;22;20081;-83
2023/01/08 02:30:05;;;;;;;5.07;1.60;;;;;;;;;;6307902;22;20027;-84
2023/01/08 02:32:33;;;;;;;3.95;1.25;;;;;;;;;;6335985;22;20030;-84
2023/01/08 02:34:59;;;;;;;2.70;1.00;;;;;;;;;;6335510;22;20023;-83
2023/01/08 02:37:29;;;;;;;7.07;1.40;;;;;;;;;;6334662;22;20034;-83
2023/01/08 02:40:02;;;;;;;4.68;1.45;;;;;;;;;;6335407;22;20098;-83
2023/01/08 02:42:50;;;;;;;4.82;1.30;;;;;;;;;;6333191;22;20440;-83
2023/01/08 02:45:30;;;;;;;6.00;1.63;;;;;;;;;;6308757;22;20423;-84
2023/01/08 02:48:22;;;;;;;4.60;1.57;;;;;;;;;;6307639;22;20766;-83
2023/01/08 02:54:14;;;;;;;5.82;1.85;;;;;;;;;;6302778;22;20023;-83
2023/01/08 02:56:43;;;;;;;5.18;2.05;;;;;;;;;;6307054;22;20029;-83
2023/01/08 02:59:22;;;;;;;9.40;2.55;;;;;;;;;;6335576;22;20544;-84
2023/01/08 03:01:50;;;;;;;4.85;2.22;;;;;;;;;;6335778;22;20046;-83
2023/01/08 03:04:18;;;;;;;6.13;2.70;;;;;;;;;;6307295;22;20053;-83
2023/01/08 03:06:45;;;;;;;4.95;2.45;;;;;;;;;;6334626;22;20538;-83
2023/01/08 03:09:12;;;;;;;5.95;2.53;;;;;;;;;;6334553;22;20027;-83
2023/01/08 03:11:44;;;;;;;7.35;3.08;;;;;;;;;;6334404;22;20372;-83
2023/01/08 03:14:25;;;;;;;8.40;2.88;;;;;;;;;;6336164;22;20029;-83
2023/01/08 03:17:13;;;;;;;7.00;2.67;;;;;;;;;;6335004;22;20102;-82
2023/01/08 03:19:41;;;;;;;9.57;3.33;;;;;;;;;;6335855;22;20027;-83
2023/01/08 03:22:09;;;;;;;9.10;2.83;;;;;;;;;;6332959;22;20027;-83
2023/01/08 03:24:37;;;;;;;8.18;3.05;;;;;;;;;;6334946;22;20074;-83
2023/01/08 03:27:04;;;;;;;7.43;3.00;;;;;;;;;;6336054;22;20023;-83
2023/01/08 03:29:31;;;;;;;7.40;3.30;;;;;;;;;;6336814;22;20023;-83
2023/01/08 03:32:00;;;;;;;6.32;3.00;;;;;;;;;;6336399;22;20061;-83
2023/01/08 03:34:28;;;;;;;5.72;2.95;;;;;;;;;;6334778;22;20085;-83
2023/01/08 03:36:56;;;;;;;5.13;2.70;;;;;;;;;;6333622;22;20512;-82
2023/01/08 03:39:26;;;;;;;9.30;2.92;;;;;;;;;;6333356;22;20111;-83
2023/01/08 03:41:56;;;;;;;7.25;3.00;;;;;;;;;;6306740;22;20101;-83
2023/01/08 03:44:23;;;;;;;7.50;3.00;;;;;;;;;;6335648;22;20547;-83
2023/01/08 03:46:51;;;;;;;7.65;2.90;;;;;;;;;;6335379;22;20415;-83
2023/01/08 03:49:18;;;;;;;12.68;3.20;;;;;;;;;;6336117;22;20126;-83
2023/01/08 03:51:46;;;;;;;9.35;3.42;;;;;;;;;;6334585;22;20023;-83
2023/01/08 03:54:16;;;;;;;10.55;3.90;;;;;;;;;;6334454;22;20026;-83
2023/01/08 03:56:43;;;;;;;5.40;2.83;;;;;;;;;;6335322;22;20101;-83
2023/01/08 03:59:13;;;;;;;11.30;3.50;;;;;;;;;;6333941;22;20149;-83
2023/01/08 04:01:39;;;;;;;9.70;2.88;;;;;;;;;;6334986;22;20062;-83
2023/01/08 04:04:06;;;;;;;6.88;2.50;;;;;;;;;;6334751;22;20104;-83
2023/01/08 04:06:33;;;;;;;6.30;2.40;;;;;;;;;;6333768;22;20031;-83
2023/01/08 04:08:59;;;;;;;7.85;2.55;;;;;;;;;;6334749;22;20023;-84
2023/01/08 04:11:26;;;;;;;6.97;2.25;;;;;;;;;;6336270;22;20495;-83
2023/01/08 04:13:52;;;;;;;8.95;2.38;;;;;;;;;;6336432;22;20528;-83
2023/01/08 04:16:19;;;;;;;7.85;1.88;;;;;;;;;;6334944;22;20477;-83
2023/01/08 04:18:46;;;;;;;8.10;1.90;;;;;;;;;;6335194;22;20554;-83
2023/01/08 04:21:13;;;;;;;4.85;1.23;;;;;;;;;;6335611;22;20023;-84
2023/01/08 04:23:39;;;;;;;5.07;1.50;;;;;;;;;;6334359;22;20077;-83
2023/01/08 04:26:06;;;;;;;3.22;1.10;;;;;;;;;;6333996;22;20031;-85
2023/01/08 04:28:33;;;;;;;4.93;1.00;;;;;;;;;;6334391;22;20027;-84
2023/01/08 04:31:04;;;;;;;4.90;1.02;;;;;;;;;;6338653;22;20786;-84
2023/01/08 04:33:30;;;;;;;6.63;1.00;;;;;;;;;;6339227;22;20065;-83
2023/01/08 04:35:57;;;;;;;4.53;0.85;;;;;;;;;;6338835;22;20027;-84
2023/01/08 04:38:23;;;;;;;5.25;1.35;;;;;;;;;;6336269;22;20034;-83
2023/01/08 04:40:54;;;;;;;5.07;0.98;;;;;;;;;;6337058;22;20092;-84
2023/01/08 04:43:21;;;;;;;4.90;1.30;;;;;;;;;;6338348;22;20802;-84
2023/01/08 04:45:47;;;;;;;8.60;1.10;;;;;;;;;;6309948;22;20070;-84
2023/01/08 04:48:13;;;;;;;7.10;1.30;;;;;;;;;;6339983;22;20543;-83
2023/01/08 04:50:40;;;;;;;4.05;0.80;;;;;;;;;;6340520;22;20487;-84
2023/01/08 04:53:06;;;;;;;4.55;1.10;;;;;;;;;;6340241;22;20023;-83
2023/01/08 04:55:33;;;;;;;5.80;1.10;;;;;;;;;;6341785;22;20899;-83
2023/01/08 04:57:59;;;;;;;5.40;1.20;;;;;;;;;;6339231;22;20031;-85
2023/01/08 05:00:26;;;;;;;5.97;1.23;;;;;;;;;;6341116;22;20462;-85
2023/01/08 05:02:53;;;;;;;5.15;1.58;;;;;;;;;;6339550;22;20468;-83
2023/01/08 05:05:20;;;;;;;5.00;0.90;;;;;;;;;;6339573;22;20559;-84
2023/01/08 05:07:46;;;;;;;7.70;1.33;;;;;;;;;;6340167;22;20594;-84
2023/01/08 05:10:13;;;;;;;6.00;1.00;;;;;;;;;;6339831;22;20031;-83
2023/01/08 05:12:56;;;;;;;5.63;1.75;;;;;;;;;;6340081;22;20031;-83
2023/01/08 05:15:27;;;;;;;6.60;1.17;;;;;;;;;;6340789;22;20015;-84
2023/01/08 05:18:04;;;;;;;9.27;0.95;;;;;;;;;;6340023;22;20024;-83
2023/01/08 05:20:31;;;;;;;4.13;1.00;;;;;;;;;;6340744;22;20023;-84
2023/01/08 05:22:58;;;;;;;4.70;1.58;;;;;;;;;;6339416;22;20549;-84
2023/01/08 05:25:28;;;;;;;;;;;;;;;;;;6342194;22;20031;-84
2023/01/08 05:28:16;;;;;;;6.22;1.67;;;;;;;;;;6340270;22;43052;-84
2023/01/08 05:30:59;;;;;;;7.25;1.13;;;;;;;;;;6316344;22;20023;-84
2023/01/08 05:33:29;;;;;;;5.47;1.20;;;;;;;;;;6339813;22;20028;-83
2023/01/08 05:36:07;;;;;;;5.05;1.35;;;;;;;;;;6340067;22;20041;-83
2023/01/08 05:38:33;;;;;;;4.05;1.10;;;;;;;;;;6338469;22;20081;-83
2023/01/08 05:41:00;;;;;;;8.13;1.23;;;;;;;;;;6338509;22;20462;-84
2023/01/08 05:43:26;;;;;;;5.57;1.10;;;;;;;;;;6339198;22;20102;-84
2023/01/08 05:45:53;;;;;;;4.78;1.48;;;;;;;;;;6340500;22;20956;-84
2023/01/08 05:48:19;;;;;;;6.47;1.40;;;;;;;;;;6338889;22;20027;-83
2023/01/08 05:50:48;;;;;;;10.10;1.45;;;;;;;;;;6311754;22;20034;-83
2023/01/08 05:53:14;;;;;;;4.60;1.35;;;;;;;;;;6337743;22;20023;-83
2023/01/08 05:55:41;;;;;;;4.55;1.30;;;;;;;;;;6339204;22;20533;-83
2023/01/08 05:58:07;;;;;;;4.18;1.50;;;;;;;;;;6339079;22;20074;-83
2023/01/08 06:00:34;;;;;;;6.55;1.50;;;;;;;;;;6338509;22;20092;-83
2023/01/08 06:03:00;;;;;;;6.57;1.63;;;;;;;;;;6338271;22;20117;-84
2023/01/08 06:05:27;;;;;;;5.28;1.30;;;;;;;;;;6337839;22;20092;-83
2023/01/08 06:07:53;;;;;;;5.15;1.60;;;;;;;;;;6337985;22;20033;-84
2023/01/08 06:10:20;;;;;;;13.25;1.92;;;;;;;;;;6336398;22;20027;-83
2023/01/08 06:12:47;;;;;;;6.60;1.70;;;;;;;;;;6338013;22;20027;-83
2023/01/08 06:15:14;;;;;;;6.50;1.60;;;;;;;;;;6338622;22;20028;-83
2023/01/08 06:17:41;;;;;;;7.18;1.67;;;;;;;;;;6338479;22;20104;-83
2023/01/08 06:20:07;;;;;;;5.57;1.55;;;;;;;;;;6338583;22;20565;-83
2023/01/08 06:22:34;;;;;;;6.63;1.70;;;;;;;;;;6339357;22;20147;-83
2023/01/08 06:25:00;;;;;;;4.78;1.30;;;;;;;;;;6337644;22;20019;-84
2023/01/08 06:27:27;;;;;;;8.75;1.58;;;;;;;;;;6336889;22;20035;-84
2023/01/08 06:29:53;;;;;;;7.78;1.70;;;;;;;;;;6338841;22;20019;-84
2023/01/08 06:32:19;;;;;;;5.13;1.38;;;;;;;;;;6339142;22;20034;-85
2023/01/08 06:34:46;;;;;;;4.47;1.50;;;;;;;;;;6338523;22;20029;-84
2023/01/08 06:37:12;;;;;;;6.38;2.00;;;;;;;;;;6337763;22;20363;-83
2023/01/08 06:39:39;;;;;;;5.13;1.83;;;;;;;;;;6336533;22;20033;-85
2023/01/08 06:42:05;;;;;;;5.07;1.65;;;;;;;;;;6337961;22;20074;-83
2023/01/08 06:44:32;;;;;;;9.10;1.52;;;;;;;;;;6339471;22;20037;-83
2023/01/08 06:47:01;;;;;;;6.57;1.52;;;;;;;;;;6309905;22;20034;-85
2023/01/08 06:49:28;;;;;;;8.20;1.50;;;;;;;;;;6338450;22;20088;-84
2023/01/08 06:51:56;;;;;;;7.05;1.60;;;;;;;;;;6337234;22;20059;-84
2023/01/08 06:54:22;;;;;;;9.32;1.83;;;;;;;;;;6309601;22;20027;-83
2023/01/08 06:56:49;;;;;;;6.63;1.52;;;;;;;;;;6337290;22;20030;-83
2023/01/08 06:59:19;;;;;;;7.97;1.48;;;;;;;;;;6338477;22;20057;-84
2023/01/08 07:01:46;;;;;;;8.48;2.20;;;;;;;;;;6311038;22;20120;-84
2023/01/08 07:04:12;;;;;;;9.93;2.00;;;;;;;;;;6309345;22;20809;-85
2023/01/08 07:06:39;;;;;;;4.78;1.95;;;;;;;;;;6338261;22;20349;-83
2023/01/08 07:09:05;;;;;;;17.00;2.17;;;;;;;;;;6337603;22;20027;-84
2023/01/08 07:11:32;;;;;;;5.32;1.38;;;;;;;;;;6337570;22;20488;-83
2023/01/08 07:13:59;;;;;;;5.38;1.80;;;;;;;;;;6336602;22;20042;-83
2023/01/08 07:16:25;;;;;;;5.80;1.17;;;;;;;;;;6307714;22;20505;-83
2023/01/08 07:18:52;;;;;;;5.93;1.55;;;;;;;;;;6336343;22;20027;-82
2023/01/08 07:21:21;;;;;;;4.82;1.25;;;;;;;;;;6335058;22;20023;-83
2023/01/08 07:23:48;;;;;;;7.50;1.67;;;;;;;;;;6306863;22;20469;-81
2023/01/08 07:26:15;;;;;;;5.65;1.30;;;;;;;;;;6339415;22;20101;-82
2023/01/08 07:28:41;;;;;;;6.25;1.30;;;;;;;;;;6337548;22;20029;-82
2023/01/08 07:31:08;;;;;;;6.03;1.25;;;;;;;;;;6309043;22;20035;-82
2023/01/08 07:33:35;;;;;;;4.65;1.30;;;;;;;;;;6309865;22;21035;-82
2023/01/08 07:36:01;;;;;;;5.20;1.40;;;;;;;;;;6337292;22;20019;-82
2023/01/08 07:38:28;;;;;;;7.05;1.80;;;;;;;;;;6337340;22;20840;-82
2023/01/08 07:40:56;;;;;;;8.68;1.90;;;;;;;;;;6338306;22;20106;-82
2023/01/08 07:43:22;;;;;;;6.57;1.30;;;;;;;;;;6337707;22;20027;-81
2023/01/08 07:45:48;;;;;;;7.45;1.30;;;;;;;;;;6337363;22;20543;-82
2023/01/08 07:48:18;;;;;;;6.68;1.20;;;;;;;;;;6314777;22;20314;-83
2023/01/08 07:50:45;;;;;;;7.57;1.40;;;;;;;;;;6309535;22;20023;-81
2023/01/08 07:53:12;;;;;;;6.95;1.35;;;;;;;;;;6309020;22;20015;-83
2023/01/08 07:55:38;;;;;;;7.88;1.58;;;;;;;;;;6337049;22;20110;-82
2023/01/08 07:58:09;;;;;;;5.95;1.17;;;;;;;;;;6337046;22;20419;-82
2023/01/08 08:00:36;;;;;;;7.80;1.42;;;;;;;;;;6337764;22;20562;-82
2023/01/08 08:03:03;;;;;;;7.60;1.30;;;;;;;;;;6337571;22;20027;-82
2023/01/08 08:05:30;;;;;;;6.82;1.10;;;;;;;;;;6335210;22;20028;-81
2023/01/08 08:07:56;;;;;;;6.85;1.48;;;;;;;;;;6335845;22;20058;-82
2023/01/08 08:10:23;;;;;;;8.05;1.65;;;;;;;;;;6337937;22;20031;-82
2023/01/08 08:12:49;;;;;;;6.43;1.48;;;;;;;;;;6337514;22;20421;-82
2023/01/08 08:15:16;;;;;;;6.03;1.45;;;;;;;;;;6338125;22;20030;-80
2023/01/08 08:17:46;;;;;;;5.13;1.33;;;;;;;;;;6336313;22;20023;-82
2023/01/08 08:20:12;;;;;;;8.77;1.88;;;;;;;;;;6310330;22;20019;-80
2023/01/08 08:22:39;;;;;;;7.40;1.27;;;;;;;;;;6338576;22;20030;-82
2023/01/08 08:25:06;;;;;;;5.82;1.58;;;;;;;;;;6337690;22;20031;-83
2023/01/08 08:27:32;;;;;;;7.55;1.30;;;;;;;;;;6338158;22;20034;-84
2023/01/08 08:29:58;;;;;;;9.73;1.40;;;;;;;;;;6311113;22;20025;-83
2023/01/08 08:32:25;;;;;;;6.40;1.88;;;;;;;;;;6338979;22;20476;-83
2023/01/08 08:34:51;;;;;;;6.88;1.38;;;;;;;;;;6338528;22;20023;-80
2023/01/08 08:37:17;;;;;;;10.50;1.23;;;;;;;;;;6337263;22;20023;-81
2023/01/08 08:39:44;;;;;;;9.93;1.10;;;;;;;;;;6336960;22;20011;-82
2023/01/08 08:42:10;;;;;;;6.93;1.40;;;;;;;;;;6337277;22;20007;-82
2023/01/08 08:44:36;;;;;;;7.68;1.13;;;;;;;;;;6336519;22;20007;-82
2023/01/08 08:47:05;;;;;;;6.07;1.42;;;;;;;;;;6336875;22;20027;-83
2023/01/08 08:49:32;;;;;;;7.85;1.30;;;;;;;;;;6337183;22;20404;-80
2023/01/08 08:52:02;;;;;;;9.57;1.70;;;;;;;;;;6338385;22;20685;-80
2023/01/08 08:54:28;;;;;;;6.47;1.20;;;;;;;;;;6337597;22;20019;-82
2023/01/08 08:56:54;;;;;;;7.72;1.45;;;;;;;;;;6338275;22;20102;-82
2023/01/08 08:59:21;;;;;;;9.07;1.38;;;;;;;;;;6338160;22;20482;-81
2023/01/08 09:01:47;;;;;;;9.48;1.60;;;;;;;;;;6336981;22;20492;-81
2023/01/08 09:04:14;;;;;;;8.35;1.08;;;;;;;;;;6309873;22;20035;-83
2023/01/08 09:06:43;;;;;;;7.38;1.63;;;;;;;;;;6337487;22;20090;-82
2023/01/08 09:09:10;;;;;;;8.77;1.97;;;;;;;;;;6336356;22;20491;-82
2023/01/08 09:11:36;;;;;;;9.52;1.42;;;;;;;;;;6337703;22;20665;-81
2023/01/08 09:14:02;;;;;;;7.28;1.63;;;;;;;;;;6336972;22;20029;-83
2023/01/08 09:16:32;;;;;;;6.47;1.23;;;;;;;;;;6337809;22;20027;-82
2023/01/08 09:18:58;;;;;;;7.93;1.60;;;;;;;;;;6336806;22;20575;-82
2023/01/08 09:21:24;;;;;;;8.07;1.58;;;;;;;;;;6310098;22;20019;-83
2023/01/08 09:23:51;;;;;;;9.23;1.55;;;;;;;;;;6337901;22;20031;-82
2023/01/08 09:26:17;;;;;;;8.18;1.63;;;;;;;;;;6337804;22;20875;-82
2023/01/08 09:28:44;;;;;;;9.07;1.42;;;;;;;;;;6337496;22;20047;-81
2023/01/08 09:31:10;;;;;;;13.15;1.50;;;;;;;;;;6337860;22;20429;-82
2023/01/08 09:33:36;;;;;;;11.10;1.80;;;;;;;;;;6337330;22;20073;-81
2023/01/08 09:36:03;;;;;;;10.32;1.33;;;;;;;;;;6338824;22;20078;-83
2023/01/08 09:38:29;;;;;;;5.72;1.40;;;;;;;;;;6337341;22;20050;-81
2023/01/08 09:40:58;;;;;;;4.72;1.23;;;;;;;;;;6310327;22;20023;-82
2023/01/08 09:43:27;;;;;;;11.20;1.83;;;;;;;;;;6336706;22;20490;-81
2023/01/08 09:45:59;;;;;;;12.98;2.08;;;;;;;;;;6337710;22;20023;-82
2023/01/08 09:48:28;;;;;;;5.55;1.40;;;;;;;;;;6310178;22;20027;-82
2023/01/08 09:50:54;;;;;;;5.65;1.40;;;;;;;;;;6310167;22;20027;-82
2023/01/08 09:53:24;;;;;;;9.55;1.40;;;;;;;;;;6309932;22;20491;-81
2023/01/08 09:55:55;;;;;;;10.82;1.65;;;;;;;;;;6336633;22;20024;-83
2023/01/08 09:58:49;;;;;;;10.90;1.42;;;;;;;;;;6337868;22;20051;-83
2023/01/08 10:01:16;;;;;;;12.30;1.80;;;;;;;;;;6337450;22;20058;-83
2023/01/08 10:03:45;;;;;;;8.43;1.95;;;;;;;;;;6335916;22;21111;-82
2023/01/08 10:06:12;;;;;;;9.45;1.75;;;;;;;;;;6336865;22;20574;-82
2023/01/08 10:08:39;;;;;;;9.38;1.70;;;;;;;;;;6337108;22;20069;-82
2023/01/08 10:11:06;;;;;;;11.02;1.50;;;;;;;;;;6336338;22;20028;-84
2023/01/08 10:13:33;;;;;;;10.98;1.60;;;;;;;;;;6336342;22;20086;-83
2023/01/08 10:16:00;;;;;;;9.40;1.60;;;;;;;;;;6335612;22;20026;-84
2023/01/08 10:18:27;;;;;;;10.68;1.70;;;;;;;;;;6335973;22;20023;-82
2023/01/08 10:20:53;;;;;;;9.85;1.80;;;;;;;;;;6336993;22;20085;-81
2023/01/08 10:23:21;;;;;;;7.90;1.63;;;;;;;;;;6337354;22;20031;-82
2023/01/08 10:25:59;;;;;;;6.13;1.40;;;;;;;;;;6308568;22;20102;-82
2023/01/08 10:28:26;;;;;;;6.88;1.30;;;;;;;;;;6336551;22;20027;-81
2023/01/08 10:30:57;;;;;;;11.88;1.70;;;;;;;;;;6335720;22;20054;-83
2023/01/08 10:33:29;;;;;;;6.95;1.75;;;;;;;;;;6336931;22;20818;-81
2023/01/08 10:36:00;;;;;;;10.93;1.55;;;;;;;;;;6336965;22;20527;-81
2023/01/08 10:38:26;;;;;;;15.13;1.77;;;;;;;;;;6336593;22;20023;-82
2023/01/08 10:40:54;;;;;;;6.75;1.67;;;;;;;;;;6308955;22;20050;-82
2023/01/08 10:43:23;;;;;;;8.68;1.55;;;;;;;;;;6336365;22;20082;-83
2023/01/08 10:45:57;;;;;;;11.65;1.50;;;;;;;;;;6335195;22;20069;-82
2023/01/08 10:48:26;;;;;;;8.48;1.13;;;;;;;;;;6337607;22;20027;-82
2023/01/08 10:51:02;;;;;;;10.13;1.55;;;;;;;;;;6336947;22;20033;-81
2023/01/08 10:53:32;;;;;;;9.98;1.48;;;;;;;;;;6338130;22;20023;-82
2023/01/08 10:56:02;;;;;;;12.30;1.80;;;;;;;;;;6309424;22;20093;-84
2023/01/08 10:58:29;;;;;;;10.10;2.45;;;;;;;;;;6335758;22;20027;-81
2023/01/08 11:01:07;;;;;;;8.55;2.08;;;;;;;;;;6337052;22;20026;-82
2023/01/08 11:03:34;;;;;;;6.07;1.90;;;;;;;;;;6336369;22;20023;-82
2023/01/08 11:06:08;;;;;;;7.93;1.35;;;;;;;;;;6336226;22;20055;-83
2023/01/08 11:08:35;;;;;;;5.85;1.60;;;;;;;;;;6337175;22;20051;-81
2023/01/08 11:11:01;;;;;;;10.38;1.95;;;;;;;;;;6335876;22;20157;-81
2023/01/08 11:13:28;;;;;;;6.55;1.20;;;;;;;;;;6334856;22;20023;-82
2023/01/08 11:16:05;;;;;;;9.43;1.42;;;;;;;;;;6337045;22;20057;-80
2023/01/08 11:18:40;;;;;;;5.22;1.70;;;;;;;;;;6309379;22;20054;-83
2023/01/08 11:21:09;;;;;;;8.85;1.42;;;;;;;;;;6336865;22;20634;-83
2023/01/08 11:23:35;;;;;;;7.75;1.90;;;;;;;;;;6335204;22;20019;-83
2023/01/08 11:26:20;;;;;;;7.30;1.30;;;;;;;;;;6335743;22;20102;-82
2023/01/08 11:28:47;;;;;;;8.85;2.15;;;;;;;;;;6339121;22;20695;-81
2023/01/08 11:31:21;;;;;;;12.63;1.95;;;;;;;;;;6339022;22;20023;-81
2023/01/08 11:33:51;;;;;;;9.15;1.58;;;;;;;;;;6337488;22;20073;-84
2023/01/08 11:36:33;;;;;;;5.88;1.30;;;;;;;;;;6338032;22;20023;-82
2023/01/08 11:39:00;;;;;;;9.57;1.67;;;;;;;;;;6338083;22;20034;-83
2023/01/08 11:41:47;;;;;;;7.53;1.23;;;;;;;;;;6312176;22;20545;-84
2023/01/08 11:44:42;;;;;;;8.98;1.70;;;;;;;;;;6309272;22;20499;-82
2023/01/08 11:47:11;;;;;;;10.15;1.92;;;;;;;;;;6339286;22;20023;-81
2023/01/08 11:49:52;;;;;;;6.13;1.40;;;;;;;;;;6338764;22;20023;-82
2023/01/08 11:52:44;;;;;;;8.48;1.85;;;;;;;;;;6309362;22;20063;-83
2023/01/08 11:55:10;;;;;;;6.93;1.63;;;;;;;;;;6323109;22;20023;-83
2023/01/08 11:57:52;;;;;;;6.38;1.35;;;;;;;;;;6337241;22;20019;-82
2023/01/08 12:00:27;;;;;;;6.85;1.40;;;;;;;;;;6338883;22;20023;-82
2023/01/08 12:03:30;;;;;;;5.57;1.48;;;;;;;;;;6336301;22;20123;-83
2023/01/08 12:06:18;;;;;;;6.22;1.23;;;;;;;;;;6208993;23;20032;-81
2023/01/08 12:09:02;;;;;;;8.43;1.73;;;;;;;;;;6303422;22;20053;-83
2023/01/08 12:11:29;;;;;;;6.18;1.33;;;;;;;;;;6338089;22;20040;-84
2023/01/08 12:14:19;;;;;;;6.30;1.55;;;;;;;;;;6309941;22;20035;-80
2023/01/08 12:17:04;;;;;;;5.03;1.20;;;;;;;;;;6266459;22;20027;-82
2023/01/08 12:19:31;;;;;;;7.93;1.77;;;;;;;;;;6308812;22;20784;-80
2023/01/08 12:21:58;;;;;;;5.93;2.53;;;;;;;;;;6336139;22;20069;-82
2023/01/08 12:24:44;;;;;;;7.45;1.23;;;;;;;;;;6307645;22;20023;-82
2023/01/08 12:27:29;;;;;;;6.25;1.40;;;;;;;;;;6337544;22;20098;-82
2023/01/08 12:30:28;;;;;;;4.78;1.20;;;;;;;;;;6311734;22;20027;-81
2023/01/08 12:33:01;;;;;;;3.20;1.00;;;;;;;;;;6336253;22;20011;-81
2023/01/08 12:35:33;;;;;;;4.00;1.25;;;;;;;;;;6334909;22;20023;-82
2023/01/08 12:38:11;;;;;;;5.75;1.10;;;;;;;;;;6333633;22;20019;-81
2023/01/08 12:40:40;;;;;;;9.80;1.63;;;;;;;;;;6335566;22;20024;-81
2023/01/08 12:43:14;;;;;;;6.30;1.17;;;;;;;;;;6335723;22;20118;-82
2023/01/08 12:45:47;;;;;;;7.95;1.00;;;;;;;;;;6336089;22;20090;-81
2023/01/08 12:48:21;;;;;;;3.33;1.00;;;;;;;;;;6335987;22;20023;-81
2023/01/08 12:51:00;;;;;;;5.65;1.08;;;;;;;;;;6335307;22;20444;-81
2023/01/08 12:53:50;;;;;;;3.13;1.08;;;;;;;;;;6309376;22;20027;-81
2023/01/08 12:56:19;;;;;;;8.95;1.48;;;;;;;;;;6276993;22;20086;-80
2023/01/08 12:58:51;;;;;;;8.18;1.33;;;;;;;;;;6336294;22;20020;-82
2023/01/08 13:01:21;;;;;;;3.55;1.27;;;;;;;;;;6335965;22;20030;-82
2023/01/08 13:03:47;;;;;;;3.97;1.17;;;;;;;;;;6335969;22;20554;-80
2023/01/08 13:06:18;;;;;;;4.40;1.13;;;;;;;;;;6333927;22;20050;-82
2023/01/08 13:08:48;;;;;;;4.45;1.35;;;;;;;;;;6308651;22;20023;-83
2023/01/08 13:11:28;;;;;;;5.03;1.17;;;;;;;;;;6337696;22;20475;-82
2023/01/08 13:13:59;;;;;;;5.53;1.20;;;;;;;;;;6337927;22;20067;-82
2023/01/08 13:16:25;;;;;;;4.57;1.05;;;;;;;;;;6337548;22;20027;-82
2023/01/08 13:18:52;;;;;;;9.13;1.30;;;;;;;;;;6338082;22;20031;-82
2023/01/08 13:21:29;;;;;;;5.50;1.10;;;;;;;;;;6309652;22;20752;-82
2023/01/08 13:24:06;;;;;;;5.57;1.10;;;;;;;;;;6338260;22;20027;-83
2023/01/08 13:26:34;;;;;;;2.65;0.88;;;;;;;;;;6337474;22;20023;-82
2023/01/08 13:29:21;;;;;;;3.03;1.10;;;;;;;;;;6337875;22;20491;-80
2023/01/08 13:31:47;;;;;;;5.40;1.30;;;;;;;;;;6338326;22;20498;-82
2023/01/08 13:34:18;;;;;;;4.20;1.23;;;;;;;;;;6334871;22;20028;-82
2023/01/08 13:36:53;;;;;;;4.40;1.10;;;;;;;;;;6336615;22;20045;-79
2023/01/08 13:39:22;;;;;;;3.78;1.00;;;;;;;;;;6335046;22;20030;-83
2023/01/08 13:42:03;;;;;;;3.33;0.93;;;;;;;;;;6342168;22;20023;-81
2023/01/08 13:44:33;;;;;;;5.28;1.10;;;;;;;;;;6337713;22;20790;-81
2023/01/08 13:47:00;;;;;;;6.78;1.15;;;;;;;;;;6336490;22;20055;-81
2023/01/08 13:49:43;;;;;;;5.65;1.02;;;;;;;;;;6309012;22;20023;-82
2023/01/08 13:52:26;;;;;;;3.65;1.00;;;;;;;;;;6337542;22;20088;-82
2023/01/08 13:54:53;;;;;;;6.65;1.25;;;;;;;;;;6338150;22;20025;-82
2023/01/08 13:57:19;;;;;;;4.80;0.85;;;;;;;;;;6336924;22;20023;-82
2023/01/08 13:59:52;;;;;;;7.15;1.23;;;;;;;;;;6337372;22;20029;-82
2023/01/08 14:02:26;;;;;;;9.18;2.10;;;;;;;;;;6309762;22;20480;-82
2023/01/08 14:04:53;;;;;;;7.53;1.10;;;;;;;;;;6337183;22;20026;-82
2023/01/08 14:07:20;;;;;;;5.15;0.85;;;;;;;;;;6336268;22;20019;-81
2023/01/08 14:09:46;;;;;;;4.60;1.00;;;;;;;;;;6309851;22;20593;-82
2023/01/08 14:12:14;;;;;;;5.45;1.15;;;;;;;;;;6336433;22;20019;-80
2023/01/08 14:14:44;;;;;;;6.22;1.05;;;;;;;;;;6309806;22;20027;-81
2023/01/08 14:17:17;;;;;;;4.00;1.13;;;;;;;;;;6336402;22;20455;-82
2023/01/08 14:19:44;;;;;;;6.55;1.23;;;;;;;;;;6336686;22;20027;-81
2023/01/08 14:22:20;;;;;;;5.55;1.10;;;;;;;;;;6337481;22;20019;-81
2023/01/08 14:24:57;;;;;;;4.65;1.00;;;;;;;;;;6308989;22;20580;-81
2023/01/08 14:27:25;;;;;;;5.70;1.27;;;;;;;;;;6336710;22;20031;-82
2023/01/08 14:29:52;;;;;;;9.68;1.20;;;;;;;;;;6337515;22;20480;-82
2023/01/08 14:32:20;;;;;;;5.35;1.10;;;;;;;;;;6336694;22;20028;-82
2023/01/08 14:34:47;;;;;;;4.85;0.95;;;;;;;;;;6309206;22;20023;-82
2023/01/08 14:37:15;;;;;;;4.15;1.10;;;;;;;;;;6309004;22;20016;-81
2023/01/08 14:39:42;;;;;;;8.57;1.38;;;;;;;;;;6335249;22;20024;-82
2023/01/08 14:45:16;;;;;;;4.32;1.25;;;;;;;;;;6336667;22;20023;-81
2023/01/08 14:47:48;;;;;;;7.90;1.50;;;;;;;;;;6335084;22;20097;-81
2023/01/08 14:50:25;;;;;;;7.30;1.50;;;;;;;;;;6308956;22;20558;-82
2023/01/08 14:52:53;;;;;;;5.40;1.42;;;;;;;;;;6336637;22;20027;-82
2023/01/08 14:55:22;;;;;;;5.97;1.27;;;;;;;;;;6337671;22;20041;-82
2023/01/08 14:57:52;;;;;;;7.57;1.30;;;;;;;;;;6335715;22;20030;-82
2023/01/08 15:00:20;;;;;;;3.65;1.20;;;;;;;;;;6308755;22;20023;-82
2023/01/08 15:02:48;;;;;;;6.40;1.60;;;;;;;;;;6336786;22;20015;-81
2023/01/08 15:05:19;;;;;;;6.43;1.48;;;;;;;;;;6336059;22;20059;-82
2023/01/08 15:08:02;;;;;;;8.18;1.73;;;;;;;;;;6308853;22;20014;-82
2023/01/08 15:10:35;;;;;;;7.28;2.45;;;;;;;;;;6337400;22;20034;-82
2023/01/08 15:13:04;;;;;;;7.90;1.77;;;;;;;;;;6308942;22;20033;-82
2023/01/08 15:15:30;;;;;;;7.50;2.13;;;;;;;;;;6335370;22;20058;-81